Time;durP1;ratioP1;P1;durP2;ratioP2;P2;SDS_P1;SDS_P2;PMS_P1;PMS_P2;Temp;Humidity;BMP_temperature;BMP_pressure;BME280_temperature;BME280_humidity;BME280_pressure;Samples;Min_cycle;Max_cycle;Signal;HPM_P1;HPM_P2
2021/01/12 04:09:10;;;;;;;45.05;26.40;;;-1.40;99.90;;;;;;5391413;23;20245;-76
2021/01/12 04:11:36;;;;;;;45.95;28.50;;;-1.40;99.90;;;;;;5004113;28;20181;-76
2021/01/12 04:14:03;;;;;;;46.90;27.35;;;-1.40;99.90;;;;;;5024116;28;20189;-76
2021/01/12 04:16:29;;;;;;;51.28;28.08;;;-1.40;99.90;;;;;;5031896;28;20631;-77
2021/01/12 04:18:55;;;;;;;43.03;27.30;;;-1.40;99.90;;;;;;5030642;28;20207;-72
2021/01/12 04:21:20;;;;;;;45.00;25.55;;;-1.30;99.90;;;;;;5031729;28;20183;-72
2021/01/12 04:23:46;;;;;;;46.25;25.45;;;-1.30;99.90;;;;;;5034051;28;20192;-72
2021/01/12 04:26:12;;;;;;;47.15;28.70;;;-1.40;99.90;;;;;;5035582;28;20244;-76
2021/01/12 04:28:37;;;;;;;42.58;25.95;;;-1.30;99.90;;;;;;5035362;28;20246;-76
2021/01/12 04:31:03;;;;;;;48.88;27.92;;;-1.30;99.90;;;;;;5035538;28;20180;-77
2021/01/12 04:33:29;;;;;;;43.22;27.58;;;-1.40;99.90;;;;;;5017234;28;20210;-76
2021/01/12 04:35:55;;;;;;;46.40;28.77;;;-1.30;99.90;;;;;;5035503;28;20260;-76
2021/01/12 04:38:21;;;;;;;44.13;27.92;;;-1.30;99.90;;;;;;5017035;28;20218;-76
2021/01/12 04:40:47;;;;;;;45.35;28.08;;;-1.30;99.90;;;;;;5034512;28;20165;-76
2021/01/12 04:43:13;;;;;;;38.85;25.00;;;-1.30;99.90;;;;;;5035289;28;20196;-76
2021/01/12 04:45:39;;;;;;;43.20;27.25;;;-1.30;99.90;;;;;;5017642;28;20299;-76
2021/01/12 04:48:05;;;;;;;46.63;26.75;;;-1.30;99.90;;;;;;5035045;28;20205;-76
2021/01/12 04:50:31;;;;;;;46.22;28.10;;;-1.30;99.90;;;;;;5017293;28;20695;-76
2021/01/12 04:52:57;;;;;;;47.45;27.02;;;-1.30;99.90;;;;;;5034747;28;20275;-76
2021/01/12 04:55:23;;;;;;;41.92;27.13;;;-1.40;99.90;;;;;;5034677;28;20176;-76
2021/01/12 04:57:49;;;;;;;44.33;26.95;;;-1.40;99.90;;;;;;5035067;28;20183;-76
2021/01/12 05:00:30;;;;;;;51.35;28.30;;;-1.30;99.90;;;;;;5017161;28;20638;-76
2021/01/12 05:03:08;;;;;;;46.83;28.08;;;-1.40;99.90;;;;;;5016933;28;20200;-76
2021/01/12 05:05:38;;;;;;;43.53;27.27;;;-1.40;99.90;;;;;;5034677;28;20208;-72
2021/01/12 05:08:17;;;;;;;48.30;28.23;;;-1.40;99.90;;;;;;5034316;28;20189;-72
2021/01/12 05:10:49;;;;;;;47.85;28.48;;;-1.40;99.90;;;;;;5016814;28;20172;-72
2021/01/12 05:13:17;;;;;;;45.90;28.08;;;-1.40;99.90;;;;;;5034729;28;20208;-72
2021/01/12 05:15:47;;;;;;;43.88;25.85;;;-1.40;99.90;;;;;;5034479;28;20179;-72
2021/01/12 05:18:17;;;;;;;47.28;28.13;;;-1.40;99.90;;;;;;5034446;28;20216;-72
2021/01/12 05:20:45;;;;;;;45.47;27.85;;;-1.30;99.90;;;;;;5016623;28;20597;-72
2021/01/12 05:23:13;;;;;;;42.42;26.42;;;-1.40;99.90;;;;;;5034129;28;20188;-72
2021/01/12 05:25:40;;;;;;;40.50;25.17;;;-1.40;99.90;;;;;;5034391;28;20574;-73
2021/01/12 05:28:10;;;;;;;47.97;29.02;;;-1.40;99.90;;;;;;5034496;28;20566;-72
2021/01/12 05:30:36;;;;;;;43.47;26.33;;;-1.30;99.90;;;;;;5034314;28;20172;-72
2021/01/12 05:33:03;;;;;;;53.40;30.48;;;-1.40;99.90;;;;;;5016278;28;20204;-72
2021/01/12 05:35:39;;;;;;;52.25;29.58;;;-1.40;99.90;;;;;;5015250;28;20320;-72
2021/01/12 05:38:08;;;;;;;47.75;28.25;;;-1.40;99.90;;;;;;5033953;28;20259;-75
2021/01/12 05:40:37;;;;;;;44.75;26.85;;;-1.40;99.90;;;;;;5034081;28;20183;-76
2021/01/12 05:43:13;;;;;;;51.75;28.92;;;-1.40;99.90;;;;;;5016441;28;20196;-76
2021/01/12 05:45:43;;;;;;;42.65;26.30;;;-1.40;99.90;;;;;;5034023;28;20828;-76
2021/01/12 05:48:10;;;;;;;46.85;27.27;;;-1.50;99.90;;;;;;5033843;28;20197;-76
2021/01/12 05:50:36;;;;;;;44.72;26.08;;;-1.40;99.90;;;;;;5034072;28;20250;-76
2021/01/12 05:53:08;;;;;;;47.60;26.95;;;-1.40;99.90;;;;;;5033494;28;20247;-76
2021/01/12 05:55:45;;;;;;;43.35;26.45;;;-1.50;99.90;;;;;;5033901;28;20205;-76
2021/01/12 05:58:20;;;;;;;44.28;26.77;;;-1.50;99.90;;;;;;5033704;28;20180;-76
2021/01/12 06:00:50;;;;;;;49.42;27.65;;;-1.40;99.90;;;;;;5033738;28;20172;-76
2021/01/12 06:03:17;;;;;;;47.55;28.27;;;-1.50;99.90;;;;;;5033711;28;20211;-77
2021/01/12 06:05:49;;;;;;;40.17;25.42;;;-1.50;99.90;;;;;;5033530;28;20232;-76
2021/01/12 06:08:16;;;;;;;51.15;28.75;;;-1.50;99.90;;;;;;5015351;28;20247;-76
2021/01/12 06:10:44;;;;;;;45.42;26.83;;;-1.50;99.90;;;;;;5026963;28;20209;-76
2021/01/12 06:13:16;;;;;;;45.60;27.92;;;-1.50;99.90;;;;;;5023377;28;20195;-76
2021/01/12 06:15:44;;;;;;;45.67;28.05;;;-1.40;99.90;;;;;;5006066;28;20645;-76
2021/01/12 06:18:20;;;;;;;45.45;27.25;;;-1.30;99.90;;;;;;5005076;28;20216;-76
2021/01/12 06:20:54;;;;;;;49.85;28.83;;;-1.40;99.90;;;;;;5022331;28;20161;-76
2021/01/12 06:23:52;;;;;;;44.83;27.75;;;-1.40;99.90;;;;;;5006519;28;20195;-75
2021/01/12 06:26:19;;;;;;;42.75;25.90;;;-1.40;99.90;;;;;;5033315;28;20236;-76
2021/01/12 06:28:44;;;;;;;44.40;26.13;;;-1.40;99.90;;;;;;5023852;28;20208;-75
2021/01/12 06:31:10;;;;;;;47.75;28.35;;;-1.40;99.90;;;;;;5021552;28;20173;-76
2021/01/12 06:33:37;;;;;;;43.85;26.98;;;-1.40;99.90;;;;;;5022721;28;20286;-76
2021/01/12 06:36:05;;;;;;;45.65;27.27;;;-1.30;99.90;;;;;;5023178;28;20209;-76
2021/01/12 06:38:36;;;;;;;41.38;25.63;;;-1.40;99.90;;;;;;5022950;28;20186;-76
2021/01/12 06:41:07;;;;;;;40.47;25.15;;;-1.40;99.90;;;;;;4997907;28;20547;-76
2021/01/12 06:43:32;;;;;;;39.67;25.30;;;-1.50;99.90;;;;;;4994964;28;20193;-76
2021/01/12 06:46:00;;;;;;;40.92;25.17;;;-1.40;99.90;;;;;;5014984;28;20745;-76
2021/01/12 06:48:28;;;;;;;45.85;28.80;;;-1.30;99.90;;;;;;5014661;28;20216;-77
2021/01/12 06:50:56;;;;;;;47.40;34.10;;;-1.40;99.90;;;;;;5030437;28;20445;-76
2021/01/12 06:53:22;;;;;;;42.28;28.55;;;-1.40;99.90;;;;;;5006049;28;20207;-76
2021/01/12 06:55:48;;;;;;;42.45;27.40;;;-1.40;99.90;;;;;;5031963;28;20172;-75
2021/01/12 06:58:13;;;;;;;42.67;28.98;;;-1.30;99.90;;;;;;5012585;28;20200;-76
2021/01/12 07:00:40;;;;;;;44.30;27.45;;;-1.40;99.90;;;;;;5032558;28;20651;-76
2021/01/12 07:03:08;;;;;;;40.28;25.45;;;-1.40;99.90;;;;;;5032408;28;20508;-76
2021/01/12 07:05:47;;;;;;;46.47;28.90;;;-1.40;99.90;;;;;;5032079;28;20358;-76
2021/01/12 07:08:13;;;;;;;41.95;28.42;;;-1.50;99.90;;;;;;5031274;28;20330;-77
2021/01/12 07:10:48;;;;;;;46.90;27.60;;;-1.30;99.90;;;;;;5031812;28;20691;-77
2021/01/12 07:13:14;;;;;;;44.47;27.63;;;-1.40;99.90;;;;;;5032252;28;20750;-77
2021/01/12 07:15:45;;;;;;;42.28;27.52;;;-1.40;99.90;;;;;;5032134;28;20255;-77
2021/01/12 07:18:11;;;;;;;43.30;27.23;;;-1.30;99.90;;;;;;5002300;28;20197;-77
2021/01/12 07:20:38;;;;;;;43.03;27.30;;;-1.40;99.90;;;;;;5005919;28;20181;-78
2021/01/12 07:23:04;;;;;;;42.50;27.15;;;-1.40;99.90;;;;;;5031847;28;20646;-74
2021/01/12 07:25:31;;;;;;;45.78;27.63;;;-1.50;99.90;;;;;;5006636;28;20224;-74
2021/01/12 07:28:13;;;;;;;41.55;26.45;;;-1.40;99.90;;;;;;5021537;28;20199;-75
2021/01/12 07:30:40;;;;;;;38.55;25.05;;;-1.90;99.90;;;;;;5011032;28;20681;-74
2021/01/12 07:33:07;;;;;;;43.00;26.25;;;-1.40;99.90;;;;;;5012085;28;20217;-73
2021/01/12 07:35:35;;;;;;;42.78;27.67;;;-1.50;99.90;;;;;;5012541;28;20169;-74
2021/01/12 07:38:02;;;;;;;46.85;26.15;;;-1.50;99.90;;;;;;5012347;28;20200;-75
2021/01/12 07:40:29;;;;;;;42.08;26.98;;;-1.60;99.90;;;;;;4994576;28;20209;-75
2021/01/12 07:42:57;;;;;;;42.47;26.38;;;-1.50;99.90;;;;;;5011832;28;20219;-74
2021/01/12 07:45:30;;;;;;;45.08;27.00;;;-1.60;99.90;;;;;;5020547;28;20248;-75
2021/01/12 07:47:58;;;;;;;44.13;27.20;;;-1.60;99.90;;;;;;5032191;28;20192;-75
2021/01/12 07:50:26;;;;;;;41.67;25.20;;;-1.60;99.90;;;;;;5010916;28;20180;-75
2021/01/12 07:52:52;;;;;;;44.67;26.50;;;-1.60;99.90;;;;;;5031457;28;20177;-75
2021/01/12 07:55:18;;;;;;;46.20;28.00;;;-1.60;99.90;;;;;;5010561;28;20173;-74
2021/01/12 07:57:47;;;;;;;44.50;26.13;;;-1.60;99.90;;;;;;5015186;28;20669;-74
2021/01/12 08:00:14;;;;;;;43.35;27.60;;;-1.60;99.90;;;;;;5032915;28;20183;-74
2021/01/12 08:02:42;;;;;;;40.90;26.63;;;-1.60;99.90;;;;;;5035947;28;20172;-74
2021/01/12 08:05:10;;;;;;;46.30;27.73;;;-1.70;99.90;;;;;;5035783;28;20550;-74
2021/01/12 08:07:36;;;;;;;43.38;27.85;;;-1.70;99.90;;;;;;5032384;28;20172;-74
2021/01/12 08:10:02;;;;;;;47.63;27.65;;;-1.70;99.90;;;;;;5035194;28;20551;-75
2021/01/12 08:12:28;;;;;;;44.00;28.75;;;-1.70;99.90;;;;;;5035384;28;20610;-76
2021/01/12 08:14:55;;;;;;;45.03;28.05;;;-1.60;99.90;;;;;;5017760;28;20279;-75
2021/01/12 08:17:28;;;;;;;44.42;29.60;;;-1.70;99.90;;;;;;5017999;28;20169;-76
2021/01/12 08:19:55;;;;;;;42.17;27.65;;;-1.70;99.90;;;;;;5017474;28;20224;-75
2021/01/12 08:22:23;;;;;;;46.95;29.77;;;-1.60;99.90;;;;;;5033791;28;20180;-74
2021/01/12 08:24:49;;;;;;;51.75;28.73;;;-1.40;99.90;;;;;;5016769;28;20205;-73
2021/01/12 08:27:20;;;;;;;45.78;27.65;;;-1.20;99.90;;;;;;5017967;28;20184;-76
2021/01/12 08:29:46;;;;;;;45.92;28.67;;;-1.20;99.90;;;;;;5021204;28;20716;-72
2021/01/12 08:32:17;;;;;;;40.47;27.27;;;-1.10;99.90;;;;;;5023865;28;20173;-71
2021/01/12 08:35:02;;;;;;;48.80;29.67;;;-1.00;99.90;;;;;;5017803;28;20200;-72
2021/01/12 08:37:29;;;;;;;43.08;29.02;;;-1.00;99.90;;;;;;5028721;28;20728;-72
2021/01/12 08:39:58;;;;;;;40.63;27.52;;;-1.00;99.90;;;;;;5017502;28;20241;-73
2021/01/12 08:42:25;;;;;;;44.90;27.50;;;-0.90;99.90;;;;;;5028491;28;20208;-72
2021/01/12 08:44:52;;;;;;;44.60;27.52;;;-0.90;99.90;;;;;;5017004;28;20235;-73
2021/01/12 08:47:27;;;;;;;44.35;28.27;;;-0.80;99.90;;;;;;5006594;28;20223;-72
2021/01/12 08:50:02;;;;;;;42.42;28.55;;;-0.90;99.90;;;;;;5025760;28;20753;-70
2021/01/12 08:52:29;;;;;;;40.05;27.05;;;-0.90;99.90;;;;;;5024844;28;20177;-69
2021/01/12 08:54:55;;;;;;;38.97;26.00;;;-0.90;99.90;;;;;;4995430;28;20197;-74
2021/01/12 08:57:20;;;;;;;42.67;28.75;;;-0.90;99.90;;;;;;5033681;28;20172;-71
2021/01/12 08:59:46;;;;;;;46.95;30.77;;;-0.80;99.90;;;;;;5034420;28;20268;-69
2021/01/12 09:02:18;;;;;;;42.08;28.85;;;-0.80;99.90;;;;;;5034527;28;20508;-69
2021/01/12 09:04:44;;;;;;;41.55;27.02;;;-0.80;99.90;;;;;;5034492;28;20254;-71
2021/01/12 09:07:10;;;;;;;48.03;30.25;;;-0.70;99.90;;;;;;5034180;28;20181;-72
2021/01/12 09:09:36;;;;;;;41.40;26.73;;;-0.70;99.90;;;;;;5034177;28;20243;-69
2021/01/12 09:12:03;;;;;;;41.58;28.10;;;-0.60;99.90;;;;;;5031752;28;20230;-72
2021/01/12 09:14:31;;;;;;;44.15;26.85;;;-0.60;99.90;;;;;;5018016;28;20207;-70
2021/01/12 09:17:03;;;;;;;43.83;29.25;;;-0.60;99.90;;;;;;5027457;28;20200;-72
2021/01/12 09:19:37;;;;;;;41.08;27.95;;;-0.60;99.90;;;;;;5006169;28;20240;-72
2021/01/12 09:22:15;;;;;;;48.10;27.88;;;-0.60;99.90;;;;;;5016179;28;20177;-73
2021/01/12 09:24:59;;;;;;;40.58;25.98;;;-0.60;99.90;;;;;;5013508;28;20755;-72
2021/01/12 09:27:29;;;;;;;50.08;30.75;;;-0.60;99.90;;;;;;5034029;28;20212;-73
2021/01/12 09:29:55;;;;;;;43.03;26.75;;;-0.70;99.90;;;;;;5030520;28;20677;-73
2021/01/12 09:32:25;;;;;;;44.33;28.33;;;-0.60;99.90;;;;;;5014159;28;20166;-74
2021/01/12 09:34:51;;;;;;;44.38;28.40;;;-0.50;99.90;;;;;;5028988;28;20271;-74
2021/01/12 09:37:18;;;;;;;44.25;29.10;;;-0.50;99.90;;;;;;5009861;28;20280;-72
2021/01/12 09:39:46;;;;;;;52.40;30.67;;;-0.50;99.90;;;;;;5013451;28;20196;-72
2021/01/12 09:42:17;;;;;;;50.55;30.15;;;-0.50;99.90;;;;;;4996161;28;20210;-72
2021/01/12 09:44:43;;;;;;;45.55;29.50;;;-0.50;99.90;;;;;;5020682;28;20199;-74
2021/01/12 09:47:09;;;;;;;55.47;30.40;;;-0.50;99.90;;;;;;5000601;28;20185;-75
2021/01/12 09:49:35;;;;;;;48.38;30.27;;;-0.60;99.90;;;;;;5022499;28;20195;-74
2021/01/12 09:52:01;;;;;;;49.70;30.83;;;-0.50;99.90;;;;;;5018575;28;20173;-74
2021/01/12 09:54:27;;;;;;;49.03;30.33;;;-0.50;99.90;;;;;;5032911;28;20199;-74
2021/01/12 09:56:52;;;;;;;46.72;30.10;;;-0.60;99.90;;;;;;5021908;28;20678;-74
2021/01/12 09:59:18;;;;;;;50.47;30.75;;;-0.50;99.90;;;;;;5013011;28;20193;-74
2021/01/12 10:01:43;;;;;;;53.35;31.65;;;-0.50;99.90;;;;;;5010377;28;20603;-74
2021/01/12 10:04:09;;;;;;;53.80;31.83;;;-0.50;99.90;;;;;;5009562;28;20634;-75
2021/01/12 10:06:35;;;;;;;54.43;34.67;;;-0.50;99.90;;;;;;5015277;28;20835;-75
2021/01/12 10:09:01;;;;;;;49.90;32.42;;;-0.60;99.90;;;;;;5031081;28;20277;-75
2021/01/12 10:11:28;;;;;;;52.67;31.58;;;-0.60;99.90;;;;;;5012470;28;20636;-75
2021/01/12 10:13:54;;;;;;;52.35;33.42;;;-0.60;99.90;;;;;;4998709;28;20193;-75
2021/01/12 10:16:24;;;;;;;49.22;31.77;;;-0.60;99.90;;;;;;5005242;28;20172;-74
2021/01/12 10:18:50;;;;;;;49.38;30.95;;;-0.50;99.90;;;;;;5015595;28;20659;-74
2021/01/12 10:21:17;;;;;;;56.20;31.35;;;-0.50;99.90;;;;;;4995696;28;20184;-74
2021/01/12 10:23:43;;;;;;;51.50;32.00;;;-0.50;99.90;;;;;;5009536;28;20622;-75
2021/01/12 10:26:16;;;;;;;51.25;31.42;;;-0.50;99.90;;;;;;5009865;28;20211;-74
2021/01/12 10:28:42;;;;;;;53.75;32.25;;;-0.50;99.90;;;;;;5015628;28;20201;-75
2021/01/12 10:31:14;;;;;;;53.70;32.42;;;-0.50;99.90;;;;;;5015986;28;20170;-75
2021/01/12 10:33:41;;;;;;;54.92;31.55;;;-0.50;99.90;;;;;;5032667;28;20646;-74
2021/01/12 10:36:07;;;;;;;55.00;31.42;;;-0.50;99.90;;;;;;5032767;28;20216;-74
2021/01/12 10:38:33;;;;;;;54.45;33.10;;;-0.50;99.90;;;;;;5032348;28;20198;-75
2021/01/12 10:40:59;;;;;;;51.42;30.90;;;-0.50;99.90;;;;;;5032791;28;20172;-74
2021/01/12 10:43:26;;;;;;;51.17;29.88;;;-0.50;99.90;;;;;;5032980;28;20545;-74
2021/01/12 10:45:52;;;;;;;54.70;31.73;;;-0.40;99.90;;;;;;5014984;28;20212;-74
2021/01/12 10:48:18;;;;;;;53.30;31.48;;;-0.50;99.90;;;;;;5023507;28;20199;-75
2021/01/12 10:50:44;;;;;;;51.00;30.55;;;-0.50;99.90;;;;;;5013103;28;20181;-72
2021/01/12 10:53:09;;;;;;;54.40;33.08;;;-0.50;99.90;;;;;;4993729;28;20194;-72
2021/01/12 10:55:35;;;;;;;52.03;31.48;;;-0.50;99.90;;;;;;5014601;28;20185;-71
2021/01/12 10:58:01;;;;;;;56.47;31.98;;;-0.50;99.90;;;;;;5032754;28;20252;-72
2021/01/12 11:00:26;;;;;;;61.83;32.60;;;-0.50;99.90;;;;;;5018141;28;20635;-73
2021/01/12 11:02:53;;;;;;;54.03;31.65;;;-0.40;99.90;;;;;;5024021;28;20667;-74
2021/01/12 11:05:19;;;;;;;59.85;31.85;;;-0.40;99.90;;;;;;5017488;28;20228;-72
2021/01/12 11:07:45;;;;;;;51.78;31.75;;;-0.40;99.90;;;;;;5012617;28;20200;-73
2021/01/12 11:10:11;;;;;;;55.35;32.95;;;-0.40;99.90;;;;;;5012039;28;20698;-72
2021/01/12 11:12:37;;;;;;;58.15;33.00;;;-0.40;99.90;;;;;;5017012;28;20176;-72
2021/01/12 11:15:04;;;;;;;52.05;32.10;;;-0.30;99.90;;;;;;5028773;28;20180;-72
2021/01/12 11:17:31;;;;;;;52.85;31.52;;;-0.30;99.90;;;;;;5012513;28;20670;-72
2021/01/12 11:19:57;;;;;;;51.30;30.60;;;-0.30;99.90;;;;;;4994712;28;20205;-72
2021/01/12 11:22:29;;;;;;;54.45;32.10;;;-0.20;99.90;;;;;;4994149;28;20173;-72
2021/01/12 11:24:56;;;;;;;48.15;30.45;;;-0.20;99.90;;;;;;5011981;28;20552;-72
2021/01/12 11:27:23;;;;;;;56.47;32.20;;;-0.20;99.90;;;;;;5011997;28;20181;-72
2021/01/12 11:29:49;;;;;;;52.17;30.67;;;-0.20;99.90;;;;;;5018669;28;20675;-72
2021/01/12 11:32:16;;;;;;;58.05;32.83;;;-0.20;99.90;;;;;;4995791;28;20528;-72
2021/01/12 11:34:41;;;;;;;49.72;30.27;;;-0.20;99.90;;;;;;5012304;28;20201;-72
2021/01/12 11:37:11;;;;;;;51.30;32.40;;;-0.20;99.90;;;;;;4994481;28;20758;-72
2021/01/12 11:39:38;;;;;;;54.10;33.25;;;-0.20;99.90;;;;;;5024869;28;20205;-72
2021/01/12 11:42:08;;;;;;;60.50;35.13;;;-0.10;99.90;;;;;;5018137;28;20192;-73
2021/01/12 11:44:33;;;;;;;50.50;32.17;;;-0.20;99.90;;;;;;5015547;28;20207;-72
2021/01/12 11:47:00;;;;;;;51.05;30.88;;;-0.10;99.90;;;;;;4997770;28;20208;-72
2021/01/12 11:49:25;;;;;;;53.78;30.92;;;-0.10;99.90;;;;;;5021928;28;20193;-72
2021/01/12 11:51:51;;;;;;;58.83;32.25;;;-0.10;99.90;;;;;;5019631;28;20177;-72
2021/01/12 11:54:18;;;;;;;50.78;31.33;;;-0.10;99.90;;;;;;5025894;28;20196;-72
2021/01/12 11:56:56;;;;;;;55.40;32.75;;;-0.10;99.90;;;;;;5014212;28;20693;-72
2021/01/12 11:59:26;;;;;;;51.60;31.27;;;-0.10;99.90;;;;;;5008121;28;20251;-72
2021/01/12 12:01:54;;;;;;;53.15;31.80;;;-0.10;99.90;;;;;;5021494;28;20173;-71
2021/01/12 12:04:22;;;;;;;51.00;30.17;;;-0.10;99.90;;;;;;5020262;28;20188;-73
2021/01/12 12:06:50;;;;;;;52.60;30.65;;;-0.10;99.90;;;;;;5002848;28;20212;-73
2021/01/12 12:09:16;;;;;;;49.95;31.13;;;0.00;99.90;;;;;;5009993;28;20228;-72
2021/01/12 12:11:43;;;;;;;55.83;31.50;;;0.00;99.90;;;;;;5002808;28;20174;-73
2021/01/12 12:14:10;;;;;;;52.00;31.98;;;0.10;99.90;;;;;;4983141;28;20198;-72
2021/01/12 12:16:36;;;;;;;56.13;30.50;;;0.00;99.90;;;;;;5002984;28;20173;-72
2021/01/12 12:19:03;;;;;;;52.28;32.03;;;0.00;99.90;;;;;;5000767;28;20206;-72
2021/01/12 12:21:29;;;;;;;53.65;32.17;;;0.00;99.90;;;;;;4976643;28;20665;-72
2021/01/12 12:23:56;;;;;;;51.63;31.73;;;0.00;99.90;;;;;;5001199;28;20208;-77
2021/01/12 12:26:22;;;;;;;51.45;32.17;;;0.00;99.90;;;;;;4993845;28;20252;-77
2021/01/12 12:28:47;;;;;;;53.10;32.42;;;0.00;99.90;;;;;;5011777;28;20224;-75
2021/01/12 12:31:14;;;;;;;50.65;30.63;;;-0.10;99.90;;;;;;5011790;28;20288;-76
2021/01/12 12:33:41;;;;;;;51.17;29.25;;;-0.10;99.90;;;;;;5010384;28;20207;-76
2021/01/12 12:36:12;;;;;;;52.22;32.78;;;-0.10;99.90;;;;;;4990593;28;20197;-77
2021/01/12 12:38:40;;;;;;;51.17;31.73;;;0.00;99.90;;;;;;4974164;28;20202;-73
2021/01/12 12:41:16;;;;;;;52.28;31.88;;;-0.10;99.90;;;;;;4988858;28;20274;-73
2021/01/12 12:43:43;;;;;;;48.85;31.23;;;-0.10;99.90;;;;;;5012154;28;20189;-73
2021/01/12 12:46:10;;;;;;;51.38;31.23;;;-0.10;99.90;;;;;;5002313;28;20806;-72
2021/01/12 12:48:36;;;;;;;52.97;31.35;;;-0.10;99.90;;;;;;4994215;28;20220;-72
2021/01/12 12:51:03;;;;;;;50.63;30.55;;;-0.10;99.90;;;;;;4991517;28;20200;-72
2021/01/12 12:53:33;;;;;;;51.78;31.73;;;-0.10;99.90;;;;;;4986146;28;20568;-73
2021/01/12 12:55:59;;;;;;;52.15;32.40;;;-0.10;99.90;;;;;;4995806;28;20283;-72
2021/01/12 12:58:25;;;;;;;48.58;30.08;;;-0.10;99.90;;;;;;5005147;28;20337;-72
2021/01/12 13:00:52;;;;;;;54.10;30.25;;;-0.10;99.90;;;;;;4977639;28;20208;-71
2021/01/12 13:03:18;;;;;;;49.40;29.23;;;-0.10;99.90;;;;;;4995186;28;20695;-73
2021/01/12 13:05:44;;;;;;;43.83;27.83;;;0.00;99.90;;;;;;4988003;28;20221;-72
2021/01/12 13:08:10;;;;;;;46.72;29.13;;;0.00;99.90;;;;;;5016654;28;20682;-72
2021/01/12 13:10:36;;;;;;;51.42;30.27;;;0.00;99.90;;;;;;5034088;28;20176;-72
2021/01/12 13:13:02;;;;;;;59.63;32.28;;;0.00;99.90;;;;;;5031496;28;20196;-72
2021/01/12 13:15:29;;;;;;;54.15;31.90;;;0.00;99.90;;;;;;5027702;28;20200;-72
2021/01/12 13:17:57;;;;;;;51.35;31.38;;;0.00;99.90;;;;;;5006479;28;20283;-73
2021/01/12 13:20:24;;;;;;;46.97;30.30;;;0.00;99.90;;;;;;5024568;28;20199;-71
2021/01/12 13:22:51;;;;;;;49.75;30.58;;;0.00;99.90;;;;;;5007064;28;20172;-72
2021/01/12 13:25:17;;;;;;;53.90;29.85;;;0.00;99.90;;;;;;5014716;28;20264;-75
2021/01/12 13:27:44;;;;;;;53.50;32.88;;;0.00;99.90;;;;;;5001453;28;20173;-71
2021/01/12 13:30:11;;;;;;;53.10;30.70;;;-0.10;99.90;;;;;;5009180;28;20168;-77
2021/01/12 13:32:45;;;;;;;46.97;30.83;;;-0.10;99.90;;;;;;5008411;28;20751;-75
2021/01/12 13:35:12;;;;;;;51.45;30.73;;;0.00;99.90;;;;;;5019810;28;20252;-74
2021/01/12 13:37:38;;;;;;;50.10;31.17;;;-0.10;99.90;;;;;;5014616;28;20173;-73
2021/01/12 13:40:05;;;;;;;50.53;31.05;;;-0.10;99.90;;;;;;4996452;28;20173;-75
2021/01/12 13:42:31;;;;;;;53.83;33.17;;;0.00;99.90;;;;;;5022288;28;20172;-74
2021/01/12 13:44:56;;;;;;;46.97;30.52;;;0.00;99.90;;;;;;5008123;28;20215;-75
2021/01/12 13:47:24;;;;;;;53.38;32.92;;;0.00;99.90;;;;;;5010452;28;20172;-73
2021/01/12 13:49:53;;;;;;;49.30;30.88;;;0.00;99.90;;;;;;5023959;28;20232;-73
2021/01/12 13:52:19;;;;;;;44.78;29.67;;;0.00;99.90;;;;;;5005016;28;20235;-73
2021/01/12 13:54:46;;;;;;;50.83;30.83;;;0.00;99.90;;;;;;5022863;28;20199;-73
2021/01/12 13:57:28;;;;;;;50.03;31.60;;;0.00;99.90;;;;;;5023770;28;20170;-74
2021/01/12 13:59:56;;;;;;;50.35;30.38;;;0.00;99.90;;;;;;5006692;28;20302;-73
2021/01/12 14:02:24;;;;;;;48.67;29.63;;;0.00;99.90;;;;;;5024352;28;20172;-72
2021/01/12 14:04:50;;;;;;;46.00;27.95;;;0.00;99.90;;;;;;5023719;28;20197;-73
2021/01/12 14:07:16;;;;;;;48.28;28.45;;;0.00;99.90;;;;;;5022382;28;20196;-72
2021/01/12 14:09:42;;;;;;;48.72;29.90;;;-0.10;99.90;;;;;;5014233;28;20304;-73
2021/01/12 14:12:12;;;;;;;45.30;27.75;;;-0.10;99.90;;;;;;4976834;28;20329;-73
2021/01/12 14:14:41;;;;;;;42.10;27.90;;;-0.10;99.90;;;;;;4993644;28;20208;-74
2021/01/12 14:17:09;;;;;;;49.25;30.05;;;-0.10;99.90;;;;;;4998366;28;20472;-73
2021/01/12 14:19:36;;;;;;;52.65;29.88;;;-0.10;99.90;;;;;;4998401;28;20252;-74
2021/01/12 14:22:08;;;;;;;46.63;28.27;;;0.00;99.90;;;;;;4987785;28;20177;-74
2021/01/12 14:24:34;;;;;;;46.47;28.70;;;0.00;99.90;;;;;;4986020;28;20193;-74
2021/01/12 14:27:00;;;;;;;46.88;29.55;;;0.00;99.90;;;;;;4984118;28;20705;-73
2021/01/12 14:29:26;;;;;;;47.53;28.42;;;0.00;99.90;;;;;;4985782;28;20626;-73
2021/01/12 14:31:53;;;;;;;50.42;30.25;;;0.00;99.90;;;;;;4997316;28;20644;-73
2021/01/12 14:34:19;;;;;;;51.05;28.85;;;0.00;99.90;;;;;;4986741;28;20667;-71
2021/01/12 14:36:50;;;;;;;42.60;27.42;;;0.10;99.90;;;;;;4998808;28;20174;-72
2021/01/12 14:39:31;;;;;;;45.35;27.70;;;0.10;99.90;;;;;;4998053;28;20193;-72
2021/01/12 14:41:57;;;;;;;46.80;28.50;;;0.10;99.90;;;;;;4996833;28;20592;-72
2021/01/12 14:44:26;;;;;;;42.40;26.98;;;0.10;99.90;;;;;;4997677;28;20201;-72
2021/01/12 14:46:54;;;;;;;37.50;25.88;;;0.20;99.90;;;;;;4997461;28;20216;-73
2021/01/12 14:49:22;;;;;;;43.55;26.83;;;0.20;99.90;;;;;;4999343;28;20190;-72
2021/01/12 14:51:48;;;;;;;41.97;27.20;;;0.20;99.90;;;;;;4984802;28;20197;-72
2021/01/12 14:54:13;;;;;;;42.22;26.55;;;0.20;99.90;;;;;;4984209;28;20200;-72
2021/01/12 14:56:40;;;;;;;50.00;28.60;;;0.30;99.90;;;;;;4982446;28;20656;-72
2021/01/12 14:59:05;;;;;;;41.55;26.95;;;0.20;99.90;;;;;;5003484;28;20192;-72
2021/01/12 15:01:41;;;;;;;44.25;27.73;;;0.20;99.90;;;;;;4990168;28;20173;-72
2021/01/12 15:04:10;;;;;;;40.13;26.17;;;0.20;99.90;;;;;;5012699;28;20193;-72
2021/01/12 15:06:37;;;;;;;44.55;28.60;;;0.30;99.90;;;;;;5011282;28;20201;-72
2021/01/12 15:09:07;;;;;;;42.92;28.40;;;0.30;99.90;;;;;;5009633;28;20276;-72
2021/01/12 15:11:33;;;;;;;43.45;27.40;;;0.30;99.90;;;;;;5024244;28;20178;-72
2021/01/12 15:13:59;;;;;;;46.10;28.38;;;0.30;99.90;;;;;;5031875;28;20203;-72
2021/01/12 15:16:24;;;;;;;40.33;28.40;;;0.30;99.90;;;;;;5027091;28;20177;-72
2021/01/12 15:18:50;;;;;;;40.42;26.13;;;0.30;99.90;;;;;;5012036;28;20189;-71
2021/01/12 15:21:17;;;;;;;46.60;28.58;;;0.30;99.90;;;;;;5021907;28;20219;-72
2021/01/12 15:23:46;;;;;;;40.40;27.38;;;0.30;99.90;;;;;;5018805;28;20628;-71
2021/01/12 15:26:13;;;;;;;42.33;27.60;;;0.30;99.90;;;;;;5027629;28;20218;-72
2021/01/12 15:28:39;;;;;;;43.97;27.77;;;0.30;99.90;;;;;;5025319;28;20197;-72
2021/01/12 15:31:05;;;;;;;43.70;28.77;;;0.30;99.90;;;;;;5009754;28;20224;-70
2021/01/12 15:33:31;;;;;;;46.33;30.15;;;0.30;99.90;;;;;;5001495;28;20288;-72
2021/01/12 15:35:57;;;;;;;47.80;30.33;;;0.30;99.90;;;;;;5012383;28;20249;-72
2021/01/12 15:38:24;;;;;;;49.40;30.48;;;0.30;99.90;;;;;;5011521;28;20193;-71
2021/01/12 15:40:51;;;;;;;42.97;28.50;;;0.30;99.90;;;;;;5011869;28;20164;-71
2021/01/12 15:43:18;;;;;;;50.67;30.80;;;0.30;99.90;;;;;;5009498;28;20226;-72
2021/01/12 15:45:44;;;;;;;45.95;29.27;;;0.30;99.90;;;;;;5031498;28;20258;-72
2021/01/12 15:48:12;;;;;;;50.15;29.85;;;0.30;99.90;;;;;;5012917;28;20208;-71
2021/01/12 15:50:37;;;;;;;48.67;29.95;;;0.30;99.90;;;;;;5031847;28;20658;-72
2021/01/12 15:53:03;;;;;;;45.00;29.50;;;0.30;99.90;;;;;;5031230;28;20192;-72
2021/01/12 15:55:32;;;;;;;49.47;30.80;;;0.30;99.90;;;;;;5031724;28;20171;-72
2021/01/12 15:58:00;;;;;;;47.88;29.73;;;0.30;99.90;;;;;;5031781;28;20192;-72
2021/01/12 16:00:28;;;;;;;43.42;29.63;;;0.30;99.90;;;;;;5031511;28;20662;-72
2021/01/12 16:02:54;;;;;;;40.08;28.40;;;0.30;99.90;;;;;;5013293;28;20595;-71
2021/01/12 16:05:21;;;;;;;45.40;29.77;;;0.30;99.90;;;;;;5013252;28;20259;-71
2021/01/12 16:07:49;;;;;;;45.70;29.17;;;0.30;99.90;;;;;;5031234;28;20187;-72
2021/01/12 16:10:17;;;;;;;43.10;27.45;;;0.30;99.90;;;;;;4984789;28;20284;-72
2021/01/12 16:12:48;;;;;;;43.70;28.85;;;0.40;99.90;;;;;;5011538;28;20177;-73
2021/01/12 16:15:16;;;;;;;39.97;27.63;;;0.40;99.90;;;;;;5012710;28;20180;-75
2021/01/12 16:17:44;;;;;;;42.25;28.67;;;0.40;99.90;;;;;;5011846;28;20175;-73
2021/01/12 16:20:10;;;;;;;41.97;27.35;;;0.40;99.90;;;;;;5014735;28;20193;-72
2021/01/12 16:22:46;;;;;;;44.67;28.45;;;0.40;99.90;;;;;;4998130;28;20184;-73
2021/01/12 16:25:14;;;;;;;40.63;26.60;;;0.40;99.90;;;;;;5023494;28;20165;-73
2021/01/12 16:27:51;;;;;;;43.40;28.92;;;0.40;99.90;;;;;;5025118;28;20172;-73
2021/01/12 16:30:20;;;;;;;39.97;28.10;;;0.40;99.90;;;;;;5006531;28;20176;-73
2021/01/12 16:32:48;;;;;;;44.38;28.63;;;0.40;99.90;;;;;;5024240;28;20176;-73
2021/01/12 16:35:14;;;;;;;46.25;28.30;;;0.50;99.90;;;;;;4997916;28;20544;-74
2021/01/12 16:37:40;;;;;;;43.63;27.67;;;0.50;99.90;;;;;;5015166;28;20181;-74
2021/01/12 16:40:08;;;;;;;41.90;27.67;;;0.50;99.90;;;;;;4999747;28;20181;-74
2021/01/12 16:42:45;;;;;;;41.50;27.65;;;0.50;99.90;;;;;;5024984;28;20224;-73